Time;durP1;ratioP1;P1;durP2;ratioP2;P2;SDS_P1;SDS_P2;PMS_P1;PMS_P2;Temp;Humidity;BMP_temperature;BMP_pressure;BME280_temperature;BME280_humidity;BME280_pressure;Samples;Min_cycle;Max_cycle;Signal;HPM_P1;HPM_P2
2022/07/03 00:01:00;;;;;;;4.45;1.35;;;;;;;;;;5020377;28;20037;-85
2022/07/03 00:03:26;;;;;;;2.30;1.20;;;;;;;;;;5023237;28;20032;-85
2022/07/03 00:05:51;;;;;;;2.50;1.30;;;;;;;;;;5035800;28;20821;-84
2022/07/03 00:08:17;;;;;;;3.10;1.60;;;;;;;;;;5030609;28;20464;-85
2022/07/03 00:10:42;;;;;;;2.33;1.20;;;;;;;;;;5024960;28;20051;-84
2022/07/03 00:13:07;;;;;;;2.22;1.20;;;;;;;;;;5030599;28;20579;-85
2022/07/03 00:15:33;;;;;;;4.03;1.50;;;;;;;;;;5025096;28;20809;-85
2022/07/03 00:17:58;;;;;;;3.20;1.35;;;;;;;;;;5026997;28;20197;-85
2022/07/03 00:20:25;;;;;;;2.80;1.30;;;;;;;;;;5035178;28;20490;-84
2022/07/03 00:22:51;;;;;;;2.80;1.30;;;;;;;;;;5019776;28;20044;-84
2022/07/03 00:25:16;;;;;;;3.10;1.52;;;;;;;;;;5038805;28;20484;-84
2022/07/03 00:27:44;;;;;;;2.60;1.50;;;;;;;;;;5021306;28;20041;-84
2022/07/03 00:30:10;;;;;;;;;;;;;;;;;;5024695;28;20039;-84
2022/07/03 00:32:38;;;;;;;3.10;1.40;;;;;;;;;;5040114;28;19921;-85
2022/07/03 00:35:04;;;;;;;2.72;1.50;;;;;;;;;;5013495;28;20041;-85
2022/07/03 00:37:30;;;;;;;2.22;1.40;;;;;;;;;;5022575;28;20036;-85
2022/07/03 00:39:56;;;;;;;3.03;1.70;;;;;;;;;;5028656;28;20684;-83
2022/07/03 00:42:21;;;;;;;2.90;1.48;;;;;;;;;;5038716;28;20028;-84
2022/07/03 00:44:59;;;;;;;2.85;1.40;;;;;;;;;;5030170;28;20186;-85
2022/07/03 00:47:26;;;;;;;3.13;1.63;;;;;;;;;;5028874;28;20069;-84
2022/07/03 00:49:54;;;;;;;2.28;1.42;;;;;;;;;;5045241;28;20114;-84
2022/07/03 00:52:23;;;;;;;3.30;1.60;;;;;;;;;;5029223;28;20701;-84
2022/07/03 00:54:55;;;;;;;2.35;1.30;;;;;;;;;;5028028;28;20146;-85
2022/07/03 00:57:23;;;;;;;3.15;1.63;;;;;;;;;;5037771;28;20032;-84
2022/07/03 00:59:49;;;;;;;2.90;1.65;;;;;;;;;;5024964;28;20093;-84
2022/07/03 01:02:23;;;;;;;2.50;1.40;;;;;;;;;;5035525;28;20488;-84
2022/07/03 01:04:52;;;;;;;3.85;1.63;;;;;;;;;;5052512;28;20041;-84
2022/07/03 01:07:51;;;;;;;2.17;1.25;;;;;;;;;;5026965;28;20041;-83
2022/07/03 01:10:45;;;;;;;2.80;1.40;;;;;;;;;;5035690;28;20515;-84
2022/07/03 01:13:23;;;;;;;3.05;1.67;;;;;;;;;;5038940;28;20373;-84
2022/07/03 01:16:13;;;;;;;4.35;1.50;;;;;;;;;;5044592;28;20040;-84
2022/07/03 01:18:48;;;;;;;2.88;1.48;;;;;;;;;;5053804;28;20047;-85
2022/07/03 01:21:31;;;;;;;2.83;1.70;;;;;;;;;;5021293;28;20465;-84
2022/07/03 01:24:27;;;;;;;2.70;1.60;;;;;;;;;;5028587;28;20047;-84
2022/07/03 01:26:57;;;;;;;3.40;1.63;;;;;;;;;;5045586;28;20036;-83
2022/07/03 01:29:35;;;;;;;3.35;1.80;;;;;;;;;;5036570;28;20045;-84
2022/07/03 01:32:01;;;;;;;3.05;1.70;;;;;;;;;;5031607;28;20041;-84
2022/07/03 01:34:33;;;;;;;3.25;2.00;;;;;;;;;;5028501;28;20043;-84
2022/07/03 01:37:00;;;;;;;2.40;1.40;;;;;;;;;;5025337;28;20039;-84
2022/07/03 01:39:27;;;;;;;3.72;1.73;;;;;;;;;;5037539;28;20391;-85
2022/07/03 01:41:53;;;;;;;2.80;1.50;;;;;;;;;;5016045;28;20037;-86
2022/07/03 01:44:20;;;;;;;3.10;1.63;;;;;;;;;;5009765;28;20171;-83
2022/07/03 01:46:45;;;;;;;4.55;1.80;;;;;;;;;;5021796;28;20047;-84
2022/07/03 01:49:12;;;;;;;2.60;1.58;;;;;;;;;;5034267;28;20037;-84
2022/07/03 01:51:38;;;;;;;4.97;1.80;;;;;;;;;;5023413;28;20033;-86
2022/07/03 01:54:05;;;;;;;3.97;1.70;;;;;;;;;;5036917;28;20044;-85
2022/07/03 01:56:32;;;;;;;2.80;1.70;;;;;;;;;;5024547;28;20052;-86
2022/07/03 01:58:59;;;;;;;2.90;1.52;;;;;;;;;;5037874;28;20045;-85
2022/07/03 02:01:31;;;;;;;2.92;1.67;;;;;;;;;;5036224;28;20071;-84
2022/07/03 02:04:31;;;;;;;3.22;1.83;;;;;;;;;;5019598;28;20049;-85
2022/07/03 02:07:02;;;;;;;3.22;1.80;;;;;;;;;;5020178;28;20029;-84
2022/07/03 02:09:44;;;;;;;2.75;1.50;;;;;;;;;;5044386;28;20048;-84
2022/07/03 02:12:12;;;;;;;3.58;1.98;;;;;;;;;;5038060;28;20041;-85
2022/07/03 02:14:37;;;;;;;;;;;;;;;;;;5050507;28;20040;-84
2022/07/03 02:17:21;;;;;;;3.47;2.20;;;;;;;;;;5032007;28;19916;-84
2022/07/03 02:20:00;;;;;;;3.25;1.80;;;;;;;;;;5011604;28;20036;-84
2022/07/03 02:22:30;;;;;;;3.13;1.80;;;;;;;;;;5024502;28;20048;-82
2022/07/03 02:25:02;;;;;;;3.08;2.00;;;;;;;;;;5031215;28;20559;-84
2022/07/03 02:27:28;;;;;;;2.88;1.70;;;;;;;;;;5030803;28;20399;-84
2022/07/03 02:30:04;;;;;;;3.22;1.90;;;;;;;;;;5020876;28;20029;-84
2022/07/03 02:32:33;;;;;;;2.83;1.80;;;;;;;;;;5023454;28;20069;-84
2022/07/03 02:35:02;;;;;;;3.00;1.65;;;;;;;;;;5026517;28;20396;-84
2022/07/03 02:37:32;;;;;;;3.03;1.85;;;;;;;;;;5038392;28;20048;-81
2022/07/03 02:40:07;;;;;;;3.28;1.88;;;;;;;;;;5022599;28;20407;-83
2022/07/03 02:42:46;;;;;;;3.47;2.00;;;;;;;;;;5038728;28;20057;-84
2022/07/03 02:45:12;;;;;;;3.22;1.80;;;;;;;;;;5023317;28;20392;-84
2022/07/03 02:47:57;;;;;;;3.40;1.95;;;;;;;;;;5032306;28;20045;-84
2022/07/03 02:50:25;;;;;;;4.35;1.90;;;;;;;;;;5041041;28;20124;-81
2022/07/03 02:53:26;;;;;;;2.90;1.70;;;;;;;;;;5032940;28;20082;-84
2022/07/03 02:55:59;;;;;;;3.63;2.13;;;;;;;;;;5024213;28;20123;-85
2022/07/03 02:58:28;;;;;;;4.10;2.10;;;;;;;;;;5023159;28;20653;-84
2022/07/03 03:01:07;;;;;;;3.28;2.03;;;;;;;;;;5054491;28;20452;-84
2022/07/03 03:03:33;;;;;;;3.45;2.08;;;;;;;;;;5031281;28;20164;-84
2022/07/03 03:06:04;;;;;;;3.60;2.08;;;;;;;;;;5046874;28;20358;-82
2022/07/03 03:08:45;;;;;;;3.10;2.00;;;;;;;;;;5026407;28;20040;-84
2022/07/03 03:11:34;;;;;;;3.58;2.00;;;;;;;;;;5029388;28;20029;-86
2022/07/03 03:14:03;;;;;;;4.03;2.22;;;;;;;;;;5046958;28;20037;-83
2022/07/03 03:16:28;;;;;;;3.42;1.83;;;;;;;;;;5021387;28;20040;-84
2022/07/03 03:18:53;;;;;;;4.05;1.95;;;;;;;;;;5029298;28;20048;-84
2022/07/03 03:21:19;;;;;;;4.78;2.55;;;;;;;;;;5021967;28;20086;-83
2022/07/03 03:23:48;;;;;;;4.80;2.00;;;;;;;;;;5037356;28;20484;-84
2022/07/03 03:26:18;;;;;;;5.10;2.35;;;;;;;;;;5042362;28;20572;-84
2022/07/03 03:28:43;;;;;;;3.60;2.10;;;;;;;;;;5024523;28;20040;-83
2022/07/03 03:31:09;;;;;;;3.25;1.90;;;;;;;;;;5040994;28;20357;-84
2022/07/03 03:33:46;;;;;;;3.47;2.22;;;;;;;;;;5030174;28;20098;-84
2022/07/03 03:36:13;;;;;;;4.82;2.15;;;;;;;;;;5020975;28;20033;-84
2022/07/03 03:38:40;;;;;;;4.40;2.13;;;;;;;;;;5038436;28;20040;-82
2022/07/03 03:41:05;;;;;;;3.50;2.10;;;;;;;;;;5020418;28;20035;-85
2022/07/03 03:43:31;;;;;;;4.50;2.40;;;;;;;;;;5035112;28;20040;-84
2022/07/03 03:46:00;;;;;;;4.53;2.28;;;;;;;;;;5026972;28;20470;-83
2022/07/03 03:48:30;;;;;;;3.70;2.00;;;;;;;;;;5036115;28;20044;-84
2022/07/03 03:50:56;;;;;;;3.65;2.03;;;;;;;;;;5029937;28;20454;-83
2022/07/03 03:53:21;;;;;;;3.35;2.10;;;;;;;;;;5023518;28;20037;-82
2022/07/03 03:56:03;;;;;;;5.65;2.28;;;;;;;;;;5024224;28;20032;-85
2022/07/03 03:58:30;;;;;;;3.40;2.10;;;;;;;;;;5030005;28;20520;-84
2022/07/03 04:00:57;;;;;;;3.27;1.97;;;;;;;;;;5030829;28;20040;-85
2022/07/03 04:03:23;;;;;;;3.38;2.13;;;;;;;;;;5056656;28;20037;-84
2022/07/03 04:05:48;;;;;;;4.22;2.65;;;;;;;;;;5035251;28;20115;-84
2022/07/03 04:08:13;;;;;;;4.65;2.20;;;;;;;;;;5030750;28;20124;-85
2022/07/03 04:10:39;;;;;;;3.20;1.98;;;;;;;;;;5021974;28;20043;-85
2022/07/03 04:13:04;;;;;;;4.28;2.05;;;;;;;;;;5030531;28;20036;-84
2022/07/03 04:15:30;;;;;;;3.88;2.20;;;;;;;;;;5039298;28;20033;-84
2022/07/03 04:17:55;;;;;;;3.65;2.00;;;;;;;;;;5021131;28;20093;-84
2022/07/03 04:20:20;;;;;;;3.90;2.65;;;;;;;;;;5036923;28;20112;-83
2022/07/03 04:22:48;;;;;;;5.10;2.03;;;;;;;;;;5027832;28;20093;-81
2022/07/03 04:25:13;;;;;;;3.20;1.98;;;;;;;;;;5035262;28;20032;-84
2022/07/03 04:27:39;;;;;;;3.67;1.83;;;;;;;;;;5019439;28;20045;-84
2022/07/03 04:30:09;;;;;;;3.20;1.88;;;;;;;;;;5022431;28;20091;-84
2022/07/03 04:32:35;;;;;;;3.13;1.75;;;;;;;;;;5029891;28;20035;-85
2022/07/03 04:35:00;;;;;;;5.55;2.05;;;;;;;;;;5023707;28;20036;-84
2022/07/03 04:37:26;;;;;;;3.05;1.83;;;;;;;;;;5032232;28;20067;-84
2022/07/03 04:39:54;;;;;;;3.53;2.00;;;;;;;;;;5024257;28;20036;-85
2022/07/03 04:42:19;;;;;;;4.30;2.15;;;;;;;;;;5021147;28;20072;-83
2022/07/03 04:44:44;;;;;;;3.30;1.98;;;;;;;;;;4998279;28;20061;-84
2022/07/03 04:47:10;;;;;;;3.17;1.85;;;;;;;;;;5028831;28;20091;-82
2022/07/03 04:49:35;;;;;;;3.20;2.05;;;;;;;;;;5021463;28;20052;-85
2022/07/03 04:52:01;;;;;;;4.07;2.33;;;;;;;;;;5016605;28;20068;-84
2022/07/03 04:54:26;;;;;;;4.05;1.73;;;;;;;;;;5016484;28;20028;-84
2022/07/03 04:56:51;;;;;;;3.30;2.03;;;;;;;;;;5021308;28;20049;-85
2022/07/03 04:59:20;;;;;;;3.60;2.05;;;;;;;;;;5030371;28;20035;-84
2022/07/03 05:01:47;;;;;;;3.13;1.80;;;;;;;;;;5028974;28;20119;-84
2022/07/03 05:04:12;;;;;;;;;;;;;;;;;;5022300;28;20063;-85
2022/07/03 05:06:38;;;;;;;4.47;2.03;;;;;;;;;;5038517;28;19917;-84
2022/07/03 05:09:03;;;;;;;2.97;1.60;;;;;;;;;;5024040;28;20283;-85
2022/07/03 05:11:31;;;;;;;2.90;1.77;;;;;;;;;;5036277;28;20037;-84
2022/07/03 05:13:57;;;;;;;3.38;1.80;;;;;;;;;;5033035;28;20799;-85
2022/07/03 05:16:22;;;;;;;3.38;1.77;;;;;;;;;;5021513;28;20028;-85
2022/07/03 05:18:47;;;;;;;3.05;1.83;;;;;;;;;;5022350;28;20132;-85
2022/07/03 05:21:13;;;;;;;3.53;2.00;;;;;;;;;;5035836;28;20029;-84
2022/07/03 05:23:38;;;;;;;4.13;1.92;;;;;;;;;;5029036;28;20067;-85
2022/07/03 05:26:04;;;;;;;2.83;1.70;;;;;;;;;;5023091;28;20104;-84
2022/07/03 05:28:29;;;;;;;3.05;1.60;;;;;;;;;;5036349;28;20037;-86
2022/07/03 05:30:54;;;;;;;3.47;1.60;;;;;;;;;;5034497;28;20040;-82
2022/07/03 05:33:20;;;;;;;2.83;1.70;;;;;;;;;;5037498;28;20033;-83
2022/07/03 05:35:45;;;;;;;2.90;1.70;;;;;;;;;;5024651;28;20063;-84
2022/07/03 05:38:10;;;;;;;3.00;1.80;;;;;;;;;;5011953;28;20136;-85
2022/07/03 05:40:36;;;;;;;3.08;1.90;;;;;;;;;;5009025;28;20083;-84
2022/07/03 05:43:01;;;;;;;3.28;1.73;;;;;;;;;;5034917;28;20036;-84
2022/07/03 05:45:27;;;;;;;2.97;1.45;;;;;;;;;;5017632;28;20029;-84
2022/07/03 05:47:53;;;;;;;3.53;1.80;;;;;;;;;;5037474;28;20124;-85
2022/07/03 05:50:18;;;;;;;3.00;1.70;;;;;;;;;;5018575;28;20041;-84
2022/07/03 05:52:44;;;;;;;2.80;1.70;;;;;;;;;;5028156;28;20427;-83
2022/07/03 05:55:09;;;;;;;2.63;1.40;;;;;;;;;;5025506;28;20132;-88
2022/07/03 05:57:34;;;;;;;3.47;1.90;;;;;;;;;;5019417;28;20036;-84
2022/07/03 06:00:01;;;;;;;3.03;1.75;;;;;;;;;;5019741;28;20055;-83
2022/07/03 06:02:26;;;;;;;3.40;1.60;;;;;;;;;;5034830;28;20051;-86
2022/07/03 06:04:51;;;;;;;2.45;1.40;;;;;;;;;;5035375;28;20040;-82
2022/07/03 06:07:17;;;;;;;2.97;1.80;;;;;;;;;;5036589;28;20059;-85
2022/07/03 06:09:47;;;;;;;2.70;1.50;;;;;;;;;;5035250;28;20071;-85
2022/07/03 06:12:13;;;;;;;2.58;1.60;;;;;;;;;;5027564;28;20161;-85
2022/07/03 06:14:39;;;;;;;2.92;1.58;;;;;;;;;;5033991;28;20163;-86
2022/07/03 06:17:04;;;;;;;2.30;1.40;;;;;;;;;;5031854;28;20103;-82
2022/07/03 06:19:30;;;;;;;2.17;1.27;;;;;;;;;;5031049;28;20041;-84
2022/07/03 06:21:56;;;;;;;2.78;1.45;;;;;;;;;;5018563;28;20036;-85
2022/07/03 06:24:21;;;;;;;2.45;1.40;;;;;;;;;;5015679;28;20029;-82
2022/07/03 06:26:47;;;;;;;4.55;1.33;;;;;;;;;;5006967;28;20119;-87
2022/07/03 06:29:13;;;;;;;3.03;1.40;;;;;;;;;;5007597;28;20041;-86
2022/07/03 06:31:40;;;;;;;2.88;1.50;;;;;;;;;;5028121;28;20471;-86
2022/07/03 06:34:06;;;;;;;2.20;1.20;;;;;;;;;;5018496;28;20037;-84
2022/07/03 06:36:31;;;;;;;2.30;1.10;;;;;;;;;;5017327;28;20040;-84
2022/07/03 06:38:57;;;;;;;2.72;1.30;;;;;;;;;;5023010;28;20052;-85
2022/07/03 06:41:22;;;;;;;2.47;1.23;;;;;;;;;;5026553;28;20033;-83
2022/07/03 06:43:51;;;;;;;2.83;1.20;;;;;;;;;;5031370;28;20502;-85
2022/07/03 06:46:16;;;;;;;2.40;1.23;;;;;;;;;;5025656;28;20060;-85
2022/07/03 06:48:42;;;;;;;2.83;1.17;;;;;;;;;;5036835;28;20609;-84
2022/07/03 06:51:07;;;;;;;2.47;1.20;;;;;;;;;;5016763;28;20045;-83
2022/07/03 06:53:33;;;;;;;2.05;1.00;;;;;;;;;;5021431;28;20377;-87
2022/07/03 06:55:59;;;;;;;2.47;1.30;;;;;;;;;;5050914;28;20045;-83
2022/07/03 06:58:27;;;;;;;2.53;1.25;;;;;;;;;;5030186;28;20039;-89
2022/07/03 07:00:52;;;;;;;2.95;1.27;;;;;;;;;;5046055;28;20056;-85
2022/07/03 07:03:18;;;;;;;1.90;1.08;;;;;;;;;;5037279;28;20176;-85
2022/07/03 07:05:43;;;;;;;2.40;1.13;;;;;;;;;;5002996;28;20052;-82
2022/07/03 07:08:09;;;;;;;2.22;1.15;;;;;;;;;;5031906;28;20024;-85
2022/07/03 07:10:34;;;;;;;2.22;1.17;;;;;;;;;;5036188;28;20068;-85
2022/07/03 07:13:00;;;;;;;2.00;1.05;;;;;;;;;;5012815;28;20361;-85
2022/07/03 07:15:25;;;;;;;2.63;1.30;;;;;;;;;;5009721;28;20385;-83
2022/07/03 07:17:50;;;;;;;2.10;1.00;;;;;;;;;;5029716;28;20036;-86
2022/07/03 07:20:16;;;;;;;2.58;1.20;;;;;;;;;;5037885;28;20083;-87
2022/07/03 07:22:44;;;;;;;2.00;1.00;;;;;;;;;;5021251;28;20092;-87
2022/07/03 07:25:13;;;;;;;2.35;1.02;;;;;;;;;;5026079;28;20037;-87
2022/07/03 07:27:38;;;;;;;2.72;1.30;;;;;;;;;;5030879;28;20036;-85
2022/07/03 07:30:04;;;;;;;2.20;1.10;;;;;;;;;;5029949;28;20036;-86
2022/07/03 07:32:33;;;;;;;2.65;1.33;;;;;;;;;;5024026;28;20036;-86
2022/07/03 07:34:58;;;;;;;2.40;1.10;;;;;;;;;;5025006;28;20125;-84
2022/07/03 07:37:24;;;;;;;3.70;1.25;;;;;;;;;;5022802;28;20109;-86
2022/07/03 07:39:49;;;;;;;2.35;1.20;;;;;;;;;;5013124;28;20254;-85
2022/07/03 07:42:16;;;;;;;2.05;0.93;;;;;;;;;;5022863;28;20032;-87
2022/07/03 07:44:41;;;;;;;1.90;1.10;;;;;;;;;;5036352;28;20079;-87
2022/07/03 07:47:07;;;;;;;2.10;1.05;;;;;;;;;;5028012;28;20060;-83
2022/07/03 07:49:32;;;;;;;1.48;0.85;;;;;;;;;;5037612;28;20045;-84
2022/07/03 07:51:57;;;;;;;2.92;1.17;;;;;;;;;;5018328;28;20034;-85
2022/07/03 07:54:23;;;;;;;2.28;1.13;;;;;;;;;;5016147;28;20053;-86
2022/07/03 07:56:48;;;;;;;2.42;1.10;;;;;;;;;;5020014;28;20048;-82
2022/07/03 07:59:13;;;;;;;2.05;1.00;;;;;;;;;;5026792;28;20500;-84
2022/07/03 08:07:06;;;;;;;3.30;1.10;;;;;;;;;;5036273;28;20048;-86
2022/07/03 08:09:32;;;;;;;2.00;1.00;;;;;;;;;;5020813;28;20037;-86
2022/07/03 08:11:57;;;;;;;2.30;1.20;;;;;;;;;;5035502;28;20033;-82
2022/07/03 08:14:22;;;;;;;2.67;1.20;;;;;;;;;;5020731;28;20037;-83
2022/07/03 08:16:48;;;;;;;2.38;1.17;;;;;;;;;;5025487;28;20298;-84
2022/07/03 08:19:14;;;;;;;2.53;1.10;;;;;;;;;;5019831;28;20029;-86
2022/07/03 08:21:40;;;;;;;2.20;1.10;;;;;;;;;;5033039;28;20087;-83
2022/07/03 08:24:06;;;;;;;2.07;1.00;;;;;;;;;;5006863;28;20045;-84
2022/07/03 08:26:31;;;;;;;2.30;1.10;;;;;;;;;;5009594;28;20283;-84
2022/07/03 08:28:56;;;;;;;1.77;1.00;;;;;;;;;;5016606;28;20065;-83
2022/07/03 08:31:22;;;;;;;1.75;0.98;;;;;;;;;;5025803;28;20036;-84
2022/07/03 08:33:47;;;;;;;1.67;0.93;;;;;;;;;;5020193;28;20049;-84
2022/07/03 08:36:13;;;;;;;1.95;0.98;;;;;;;;;;5019008;28;20087;-85
2022/07/03 08:38:38;;;;;;;1.85;0.98;;;;;;;;;;5017922;28;20103;-83
2022/07/03 08:41:04;;;;;;;2.30;0.90;;;;;;;;;;5026095;28;20079;-84
2022/07/03 08:43:30;;;;;;;1.83;0.95;;;;;;;;;;5034512;28;20047;-86
2022/07/03 08:45:59;;;;;;;1.73;0.95;;;;;;;;;;5026010;28;20033;-84
2022/07/03 08:48:25;;;;;;;2.28;1.05;;;;;;;;;;5000728;28;20034;-84
2022/07/03 08:50:51;;;;;;;2.33;0.77;;;;;;;;;;4998808;28;20080;-85
2022/07/03 08:53:17;;;;;;;2.30;1.27;;;;;;;;;;4996264;28;20869;-84
2022/07/03 08:55:43;;;;;;;2.42;0.90;;;;;;;;;;4981590;28;20288;-85
2022/07/03 08:58:12;;;;;;;1.92;0.82;;;;;;;;;;4980432;28;20485;-84
2022/07/03 09:00:37;;;;;;;1.50;0.80;;;;;;;;;;4984919;28;20397;-88
2022/07/03 09:03:04;;;;;;;1.95;0.90;;;;;;;;;;5007379;28;20041;-83
2022/07/03 09:05:30;;;;;;;2.03;0.88;;;;;;;;;;4985226;28;20045;-84
2022/07/03 09:07:59;;;;;;;2.42;1.20;;;;;;;;;;4985578;28;20050;-86
2022/07/03 09:10:25;;;;;;;1.85;0.82;;;;;;;;;;4991998;28;20081;-84
2022/07/03 09:12:50;;;;;;;1.50;0.90;;;;;;;;;;5003892;28;20405;-84
2022/07/03 09:15:16;;;;;;;1.70;0.90;;;;;;;;;;5009824;28;20038;-83
2022/07/03 09:18:04;;;;;;;1.87;0.90;;;;;;;;;;4987344;28;20542;-86
2022/07/03 09:20:43;;;;;;;1.40;0.60;;;;;;;;;;4984412;28;20038;-83
2022/07/03 09:23:15;;;;;;;1.52;0.60;;;;;;;;;;4993566;28;20110;-85
2022/07/03 09:25:54;;;;;;;1.67;0.73;;;;;;;;;;5003185;28;20096;-83
2022/07/03 09:28:21;;;;;;;1.73;0.60;;;;;;;;;;5008013;28;20037;-85
2022/07/03 09:30:57;;;;;;;1.42;0.80;;;;;;;;;;4996354;28;20035;-84
2022/07/03 09:33:23;;;;;;;2.45;0.75;;;;;;;;;;4978372;28;20030;-83
2022/07/03 09:35:53;;;;;;;1.13;0.60;;;;;;;;;;4979582;28;20635;-81
2022/07/03 09:38:19;;;;;;;1.80;0.70;;;;;;;;;;4981557;28;20069;-86
2022/07/03 09:40:55;;;;;;;2.03;0.80;;;;;;;;;;5013070;28;20529;-86
2022/07/03 09:43:30;;;;;;;2.05;0.80;;;;;;;;;;5012627;28;20096;-85
2022/07/03 09:45:56;;;;;;;2.30;0.68;;;;;;;;;;5019596;28;20072;-82
2022/07/03 09:48:31;;;;;;;1.00;0.50;;;;;;;;;;4994977;28;20025;-85
2022/07/03 09:51:28;;;;;;;1.60;0.60;;;;;;;;;;4995258;28;20049;-85
2022/07/03 09:53:58;;;;;;;0.95;0.50;;;;;;;;;;5001976;28;20048;-85
2022/07/03 09:56:27;;;;;;;1.25;0.60;;;;;;;;;;5002879;28;20038;-87
2022/07/03 09:59:25;;;;;;;1.70;0.70;;;;;;;;;;5011621;28;20038;-87
2022/07/03 10:01:50;;;;;;;1.17;0.57;;;;;;;;;;5008299;28;20517;-86
2022/07/03 10:04:22;;;;;;;1.17;0.60;;;;;;;;;;5014119;28;20052;-82
2022/07/03 10:06:57;;;;;;;1.63;0.70;;;;;;;;;;5027231;28;20040;-83
2022/07/03 10:09:30;;;;;;;0.93;0.50;;;;;;;;;;4996852;28;20061;-85
2022/07/03 10:11:57;;;;;;;1.25;0.50;;;;;;;;;;5020198;28;20042;-87
2022/07/03 10:14:24;;;;;;;1.63;0.60;;;;;;;;;;4982036;28;20080;-87
2022/07/03 10:16:50;;;;;;;1.48;0.60;;;;;;;;;;5001479;28;20176;-84
2022/07/03 10:19:19;;;;;;;1.15;0.50;;;;;;;;;;4995132;28;20113;-84
2022/07/03 10:21:53;;;;;;;1.15;0.60;;;;;;;;;;4993380;28;20061;-85
2022/07/03 10:24:21;;;;;;;1.20;0.65;;;;;;;;;;5001437;28;20073;-84
2022/07/03 10:26:48;;;;;;;1.95;0.70;;;;;;;;;;5002694;28;20041;-86
2022/07/03 10:29:15;;;;;;;1.20;0.60;;;;;;;;;;5002672;28;20121;-85
2022/07/03 10:31:42;;;;;;;1.42;0.55;;;;;;;;;;4986102;28;20089;-86
2022/07/03 10:34:07;;;;;;;1.50;0.75;;;;;;;;;;4986454;28;20034;-85
2022/07/03 10:36:36;;;;;;;1.47;0.63;;;;;;;;;;5008994;28;20041;-87
2022/07/03 10:39:05;;;;;;;1.95;0.50;;;;;;;;;;5014856;28;20399;-84
2022/07/03 10:47:38;;;;;;;1.02;0.50;;;;;;;;;;5028523;28;20093;-85
2022/07/03 10:50:11;;;;;;;1.20;0.68;;;;;;;;;;5012230;28;20067;-85
2022/07/03 10:52:37;;;;;;;1.52;0.50;;;;;;;;;;5007580;28;20038;-86
2022/07/03 10:55:06;;;;;;;1.25;0.60;;;;;;;;;;5002636;28;20409;-86
2022/07/03 10:57:31;;;;;;;0.93;0.50;;;;;;;;;;5026232;28;20504;-85
2022/07/03 10:59:58;;;;;;;1.33;0.57;;;;;;;;;;5019861;28;20045;-86
2022/07/03 11:02:38;;;;;;;1.00;0.43;;;;;;;;;;5018306;28;20152;-86
2022/07/03 11:05:09;;;;;;;1.20;0.60;;;;;;;;;;5044724;28;20041;-85
2022/07/03 11:07:43;;;;;;;1.20;0.50;;;;;;;;;;5038010;28;20075;-84
2022/07/03 11:10:09;;;;;;;1.13;0.60;;;;;;;;;;5019983;28;20033;-85
2022/07/03 11:12:57;;;;;;;;;;;;;;;;;;5025412;28;20038;-84
2022/07/03 11:15:33;;;;;;;0.90;0.50;;;;;;;;;;5024575;28;19917;-83
2022/07/03 11:18:04;;;;;;;1.75;0.50;;;;;;;;;;5033869;28;20041;-83
2022/07/03 11:20:30;;;;;;;1.15;0.68;;;;;;;;;;5034684;28;20840;-84
2022/07/03 11:22:59;;;;;;;;;;;;;;;;;;5017990;28;20044;-83
2022/07/03 11:25:25;;;;;;;1.17;0.50;;;;;;;;;;5016345;28;19932;-82
2022/07/03 11:27:52;;;;;;;1.40;0.60;;;;;;;;;;5021578;28;20614;-82
2022/07/03 11:30:18;;;;;;;1.00;0.50;;;;;;;;;;5021339;28;20116;-81
2022/07/03 11:32:44;;;;;;;2.63;0.50;;;;;;;;;;5028210;28;20041;-82
2022/07/03 11:35:48;;;;;;;0.88;0.50;;;;;;;;;;5033752;28;20536;-82
2022/07/03 11:38:15;;;;;;;2.00;0.73;;;;;;;;;;5043398;28;20037;-78
2022/07/03 11:40:41;;;;;;;;;;;;;;;;;;5034219;28;20040;-81
2022/07/03 11:43:06;;;;;;;1.88;0.70;;;;;;;;;;5034700;28;20529;-78
2022/07/03 11:45:32;;;;;;;1.53;0.60;;;;;;;;;;5035954;28;20033;-77
2022/07/03 11:47:57;;;;;;;1.92;0.80;;;;;;;;;;5017940;28;20033;-83
2022/07/03 11:50:39;;;;;;;1.48;0.80;;;;;;;;;;5021782;28;20571;-82
2022/07/03 11:53:29;;;;;;;1.60;0.70;;;;;;;;;;5024234;28;20048;-83
2022/07/03 11:55:59;;;;;;;1.83;0.80;;;;;;;;;;5024692;28;20121;-83
2022/07/03 11:58:26;;;;;;;1.30;0.75;;;;;;;;;;5039027;28;20041;-83
2022/07/03 12:00:52;;;;;;;1.00;0.60;;;;;;;;;;5030097;28;20043;-83
2022/07/03 12:03:23;;;;;;;1.27;0.65;;;;;;;;;;5024473;28;20056;-84
2022/07/03 12:05:50;;;;;;;1.55;0.73;;;;;;;;;;5023008;28;20443;-83
2022/07/03 12:08:21;;;;;;;1.75;0.98;;;;;;;;;;5035686;28;20560;-84
2022/07/03 12:10:49;;;;;;;2.17;0.80;;;;;;;;;;5034317;28;20038;-84
2022/07/03 12:13:21;;;;;;;1.20;0.60;;;;;;;;;;5020920;28;20394;-83
2022/07/03 12:15:47;;;;;;;2.00;0.82;;;;;;;;;;5035630;28;20428;-85
2022/07/03 12:18:13;;;;;;;2.95;1.10;;;;;;;;;;5015650;28;20140;-84
2022/07/03 12:20:38;;;;;;;1.33;0.63;;;;;;;;;;5022667;28;20046;-84
2022/07/03 12:23:03;;;;;;;2.53;0.70;;;;;;;;;;5019029;28;20264;-84
2022/07/03 12:25:29;;;;;;;1.75;0.80;;;;;;;;;;5027945;28;20034;-85
2022/07/03 12:27:55;;;;;;;1.77;0.80;;;;;;;;;;5025878;28;20029;-84
2022/07/03 12:30:27;;;;;;;1.98;1.00;;;;;;;;;;5025669;28;20060;-82
2022/07/03 12:32:53;;;;;;;1.88;1.08;;;;;;;;;;5023127;28;21010;-83
2022/07/03 12:35:22;;;;;;;1.52;0.80;;;;;;;;;;5031010;28;20112;-84
2022/07/03 12:37:48;;;;;;;1.60;0.90;;;;;;;;;;5038968;28;20033;-84
2022/07/03 12:40:14;;;;;;;1.55;0.80;;;;;;;;;;5028883;28;20404;-84
2022/07/03 12:42:50;;;;;;;2.08;0.77;;;;;;;;;;5020477;28;20943;-85
2022/07/03 12:45:23;;;;;;;1.90;0.93;;;;;;;;;;5025134;28;20040;-84
2022/07/03 12:48:02;;;;;;;1.85;0.90;;;;;;;;;;5020808;28;20052;-84
2022/07/03 12:50:48;;;;;;;2.80;0.98;;;;;;;;;;5024833;28;20045;-85
2022/07/03 12:53:29;;;;;;;1.63;0.90;;;;;;;;;;5020196;28;20037;-84
2022/07/03 12:56:00;;;;;;;2.03;1.00;;;;;;;;;;5032093;28;20071;-86
2022/07/03 13:01:29;;;;;;;1.80;0.80;;;;;;;;;;5034650;28;20053;-84
2022/07/03 13:03:55;;;;;;;2.30;0.77;;;;;;;;;;5015526;28;20050;-84
2022/07/03 13:06:22;;;;;;;1.52;0.80;;;;;;;;;;5016241;28;20795;-83
2022/07/03 13:09:03;;;;;;;1.48;0.70;;;;;;;;;;5016635;28;20049;-84
2022/07/03 13:11:38;;;;;;;1.63;0.70;;;;;;;;;;5011171;28;20173;-83
2022/07/03 13:14:17;;;;;;;2.97;0.80;;;;;;;;;;5007855;28;20044;-84
2022/07/03 13:16:47;;;;;;;2.28;0.82;;;;;;;;;;5018105;28;20037;-84
2022/07/03 13:19:18;;;;;;;1.40;0.70;;;;;;;;;;5024387;28;20052;-86
2022/07/03 13:21:44;;;;;;;1.55;0.80;;;;;;;;;;5036586;28;20033;-84
2022/07/03 13:24:10;;;;;;;1.55;0.80;;;;;;;;;;5024132;28;20044;-85
2022/07/03 13:26:36;;;;;;;1.25;0.70;;;;;;;;;;5024661;28;20029;-85
2022/07/03 13:29:03;;;;;;;1.10;0.70;;;;;;;;;;5030783;28;20365;-86
2022/07/03 13:31:29;;;;;;;2.17;0.88;;;;;;;;;;5017875;28;20559;-85
2022/07/03 13:33:54;;;;;;;1.20;0.65;;;;;;;;;;5025495;28;20115;-85
2022/07/03 13:36:20;;;;;;;1.73;0.80;;;;;;;;;;5024447;28;20045;-85
2022/07/03 13:38:45;;;;;;;1.85;0.80;;;;;;;;;;5024907;28;20083;-85
2022/07/03 13:41:11;;;;;;;1.40;0.73;;;;;;;;;;5017703;28;20120;-85
2022/07/03 13:43:37;;;;;;;1.48;0.70;;;;;;;;;;5026751;28;20069;-85
2022/07/03 13:46:02;;;;;;;1.10;0.60;;;;;;;;;;5026447;28;20059;-86
2022/07/03 13:48:28;;;;;;;2.92;0.60;;;;;;;;;;5032832;28;20036;-86
2022/07/03 13:50:53;;;;;;;1.40;0.70;;;;;;;;;;5018406;28;20495;-85
2022/07/03 13:53:19;;;;;;;1.27;0.70;;;;;;;;;;5033505;28;20590;-85
2022/07/03 13:55:44;;;;;;;1.35;0.70;;;;;;;;;;5025399;28;20381;-85
2022/07/03 13:58:10;;;;;;;3.35;0.85;;;;;;;;;;5026705;28;20025;-85
2022/07/03 14:00:35;;;;;;;1.65;0.80;;;;;;;;;;5017777;28;20069;-85
2022/07/03 14:03:01;;;;;;;1.42;0.70;;;;;;;;;;5022026;28;20538;-85
2022/07/03 14:05:27;;;;;;;1.80;0.70;;;;;;;;;;5025806;28;20033;-86
2022/07/03 14:07:54;;;;;;;3.45;0.90;;;;;;;;;;5029544;28;20033;-85
2022/07/03 14:10:20;;;;;;;1.98;0.70;;;;;;;;;;5028830;28;20084;-85
2022/07/03 14:12:46;;;;;;;1.65;0.63;;;;;;;;;;5035739;28;20110;-85
2022/07/03 14:15:11;;;;;;;1.27;0.70;;;;;;;;;;5029829;28;20033;-85
2022/07/03 14:17:36;;;;;;;1.48;0.80;;;;;;;;;;5037255;28;20515;-86
2022/07/03 14:20:02;;;;;;;1.58;0.82;;;;;;;;;;5029142;28;20060;-87
2022/07/03 14:22:27;;;;;;;1.55;0.70;;;;;;;;;;5021394;28;20029;-86
2022/07/03 14:24:53;;;;;;;1.15;0.60;;;;;;;;;;5027611;28;20509;-85
2022/07/03 14:32:47;;;;;;;2.00;0.90;;;;;;;;;;5020048;28;20067;-87
2022/07/03 14:35:13;;;;;;;2.17;0.98;;;;;;;;;;5008061;28;20061;-85
2022/07/03 14:37:38;;;;;;;2.53;0.90;;;;;;;;;;5028912;28;20041;-85
2022/07/03 14:40:04;;;;;;;1.27;0.70;;;;;;;;;;5024932;28;20489;-86
2022/07/03 14:42:29;;;;;;;1.23;0.63;;;;;;;;;;5027569;28;20057;-86
2022/07/03 14:44:55;;;;;;;1.55;0.80;;;;;;;;;;5021713;28;20053;-85
2022/07/03 14:47:20;;;;;;;1.80;0.80;;;;;;;;;;5026760;28;20049;-85
2022/07/03 14:49:47;;;;;;;1.83;0.90;;;;;;;;;;5037928;28;20033;-85
2022/07/03 14:52:12;;;;;;;1.35;0.65;;;;;;;;;;5019344;28;20056;-85
2022/07/03 14:54:40;;;;;;;2.10;0.80;;;;;;;;;;5013280;28;20041;-87
2022/07/03 14:57:18;;;;;;;1.35;0.70;;;;;;;;;;5028097;28;20032;-85
2022/07/03 14:59:59;;;;;;;1.52;0.80;;;;;;;;;;5023893;28;20491;-85
2022/07/03 15:02:33;;;;;;;1.52;0.85;;;;;;;;;;5041381;28;20559;-86
2022/07/03 15:05:04;;;;;;;1.65;0.60;;;;;;;;;;5047914;28;20033;-85
2022/07/03 15:07:35;;;;;;;1.20;0.70;;;;;;;;;;5039048;28;20087;-85
2022/07/03 15:10:05;;;;;;;1.35;0.70;;;;;;;;;;5037020;28;20102;-85
2022/07/03 15:12:32;;;;;;;1.92;0.75;;;;;;;;;;5026351;28;20033;-85
2022/07/03 15:14:59;;;;;;;1.90;0.70;;;;;;;;;;5036577;28;20048;-85